Time;durP1;ratioP1;P1;durP2;ratioP2;P2;SDS_P1;SDS_P2;PMS_P1;PMS_P2;Temp;Humidity;BMP_temperature;BMP_pressure;BME280_temperature;BME280_humidity;BME280_pressure;Samples;Min_cycle;Max_cycle;Signal;HPM_P1;HPM_P2
2021/11/07 00:04:41;;;;;;;;;220.60;218.20;;;;;;;;4976493;28;8853;-82
2021/11/07 00:10:14;;;;;;;;;203.67;202.33;;;;;;;;4950219;28;8847;-82
2021/11/07 00:12:43;;;;;;;;;244.67;242.50;;;;;;;;4958713;28;8837;-82
2021/11/07 00:15:15;;;;;;;;;243.67;242.00;;;;;;;;4958779;28;8814;-82
2021/11/07 00:17:46;;;;;;;;;219.00;216.40;;;;;;;;4949825;28;8971;-82
2021/11/07 00:20:19;;;;;;;;;250.17;245.67;;;;;;;;4964220;28;8794;-82
2021/11/07 00:22:55;;;;;;;;;218.50;215.50;;;;;;;;4976304;28;8790;-82
2021/11/07 00:25:58;;;;;;;;;215.17;213.17;;;;;;;;4975541;28;9676;-82
2021/11/07 00:28:23;;;;;;;;;226.17;226.17;;;;;;;;4960776;28;8840;-82
2021/11/07 00:31:02;;;;;;;;;208.40;204.80;;;;;;;;4976252;28;8888;-82
2021/11/07 00:34:31;;;;;;;;;213.17;211.00;;;;;;;;4976071;28;8955;-82
2021/11/07 00:36:34;;;;;;;;;218.67;211.67;;;;;;;;4967566;28;8896;-82
2021/11/07 00:41:50;;;;;;;;;216.67;214.33;;;;;;;;4975410;28;8765;-82
2021/11/07 00:46:54;;;;;;;;;212.00;211.17;;;;;;;;4975974;28;8786;-82
2021/11/07 00:49:30;;;;;;;;;202.20;199.40;;;;;;;;4958490;28;8906;-82
2021/11/07 00:57:36;;;;;;;;;253.50;252.33;;;;;;;;4967252;28;8784;-82
2021/11/07 01:00:11;;;;;;;;;259.50;259.17;;;;;;;;4975597;28;8829;-82
2021/11/07 01:02:38;;;;;;;;;251.00;251.00;;;;;;;;4975880;28;8809;-82
2021/11/07 01:05:09;;;;;;;;;231.67;231.67;;;;;;;;4975733;28;8778;-82
2021/11/07 01:07:35;;;;;;;;;242.00;242.00;;;;;;;;4976216;28;9728;-82
2021/11/07 01:10:00;;;;;;;;;252.20;252.20;;;;;;;;4975415;28;8837;-82
2021/11/07 01:12:26;;;;;;;;;246.33;246.33;;;;;;;;4975676;28;9197;-82
2021/11/07 01:14:56;;;;;;;;;164.00;164.00;;;;;;;;4975948;28;8790;-82
2021/11/07 01:17:21;;;;;;;;;28.00;26.20;;;;;;;;4967865;28;8869;-81
2021/11/07 01:19:48;;;;;;;;;0.25;0.25;;;;;;;;4962341;28;8869;-82
2021/11/07 01:22:18;;;;;;;;;0.00;0.00;;;;;;;;4975856;28;9731;-82
2021/11/07 01:24:53;;;;;;;;;0.00;0.00;;;;;;;;4975708;28;8797;-82
2021/11/07 01:27:23;;;;;;;;;3.00;3.00;;;;;;;;4975735;28;8801;-81
2021/11/07 01:29:52;;;;;;;;;99.33;95.67;;;;;;;;4975890;28;8847;-82
2021/11/07 01:32:20;;;;;;;;;0.00;0.00;;;;;;;;4975727;28;8800;-82
2021/11/07 01:35:16;;;;;;;;;0.00;0.00;;;;;;;;4958474;28;8816;-82
2021/11/07 01:37:37;;;;;;;;;0.00;0.00;;;;;;;;4974985;28;8834;-82
2021/11/07 01:42:36;;;;;;;;;0.00;0.00;;;;;;;;4975739;28;8804;-82
2021/11/07 01:45:09;;;;;;;;;0.00;0.00;;;;;;;;4971937;28;8861;-82
2021/11/07 01:47:41;;;;;;;;;0.00;0.00;;;;;;;;4964094;28;8792;-82
2021/11/07 01:50:07;;;;;;;;;0.00;0.00;;;;;;;;4975718;28;8760;-82
2021/11/07 01:52:38;;;;;;;;;0.00;0.00;;;;;;;;4975277;28;8804;-82
2021/11/07 01:55:05;;;;;;;;;0.00;0.00;;;;;;;;4975536;28;8816;-81
2021/11/07 01:57:31;;;;;;;;;0.00;0.00;;;;;;;;4957760;28;9765;-82
2021/11/07 01:59:57;;;;;;;;;0.00;0.00;;;;;;;;4975826;28;8796;-82
2021/11/07 02:02:24;;;;;;;;;0.00;0.00;;;;;;;;4975392;28;8899;-82
2021/11/07 02:04:50;;;;;;;;;0.00;0.00;;;;;;;;4957924;28;8812;-82
2021/11/07 02:07:15;;;;;;;;;0.00;0.00;;;;;;;;4975499;28;8876;-82
2021/11/07 02:09:41;;;;;;;;;0.00;0.00;;;;;;;;4975298;28;8856;-82
2021/11/07 02:12:08;;;;;;;;;0.00;0.00;;;;;;;;4975241;28;8815;-82
2021/11/07 02:14:33;;;;;;;;;0.00;0.00;;;;;;;;4975188;28;8796;-82
2021/11/07 02:16:59;;;;;;;;;0.00;0.00;;;;;;;;4970547;28;9513;-82
2021/11/07 02:19:24;;;;;;;;;0.00;0.00;;;;;;;;4958916;28;9052;-82
2021/11/07 02:21:50;;;;;;;;;0.00;0.00;;;;;;;;4975290;28;9584;-82
2021/11/07 02:24:16;;;;;;;;;0.00;0.00;;;;;;;;4974716;28;8882;-82
2021/11/07 02:26:54;;;;;;;;;0.00;0.00;;;;;;;;4974927;28;8796;-82
2021/11/07 02:29:21;;;;;;;;;0.00;0.00;;;;;;;;4974759;28;8803;-82
2021/11/07 02:31:47;;;;;;;;;0.00;0.00;;;;;;;;4957702;28;8819;-82
2021/11/07 02:34:12;;;;;;;;;0.00;0.00;;;;;;;;4974719;28;8824;-82
2021/11/07 02:36:38;;;;;;;;;0.00;0.00;;;;;;;;4975013;28;8834;-81
2021/11/07 02:39:04;;;;;;;;;0.00;0.00;;;;;;;;4974909;28;8855;-81
2021/11/07 02:41:29;;;;;;;;;0.00;0.00;;;;;;;;4974460;28;8922;-82
2021/11/07 02:43:55;;;;;;;;;0.00;0.00;;;;;;;;4970314;28;8816;-82
2021/11/07 02:46:21;;;;;;;;;0.00;0.00;;;;;;;;4974936;28;8824;-82
2021/11/07 02:48:51;;;;;;;;;0.00;0.00;;;;;;;;4974715;28;8816;-82
2021/11/07 02:51:21;;;;;;;;;0.00;0.00;;;;;;;;4977298;28;8771;-82
2021/11/07 02:53:47;;;;;;;;;0.00;0.00;;;;;;;;4981268;28;8867;-82
2021/11/07 02:56:14;;;;;;;;;0.00;0.00;;;;;;;;4981175;28;8815;-82
2021/11/07 02:58:40;;;;;;;;;0.00;0.00;;;;;;;;4963446;28;8885;-82
2021/11/07 03:01:05;;;;;;;;;0.00;0.00;;;;;;;;4981414;28;8910;-82
2021/11/07 03:03:31;;;;;;;;;0.00;0.00;;;;;;;;4963334;28;9268;-82
2021/11/07 03:05:56;;;;;;;;;0.00;0.00;;;;;;;;4981343;28;8820;-82
2021/11/07 03:08:22;;;;;;;;;0.00;0.00;;;;;;;;4981025;28;8808;-82
2021/11/07 03:10:47;;;;;;;;;0.00;0.00;;;;;;;;4980877;28;8832;-82
2021/11/07 03:13:13;;;;;;;;;0.00;0.00;;;;;;;;4963164;28;8851;-82
2021/11/07 03:15:40;;;;;;;;;0.00;0.00;;;;;;;;4981129;28;8740;-82
2021/11/07 03:18:05;;;;;;;;;0.00;0.00;;;;;;;;4972097;28;8816;-82
2021/11/07 03:20:31;;;;;;;;;0.00;0.00;;;;;;;;4979387;28;9104;-82
2021/11/07 03:22:56;;;;;;;;;0.00;0.00;;;;;;;;4980941;28;8804;-82
2021/11/07 03:25:24;;;;;;;;;0.00;0.00;;;;;;;;4980403;28;8863;-82
2021/11/07 03:27:49;;;;;;;;;0.00;0.00;;;;;;;;4980490;28;8914;-82
2021/11/07 03:30:26;;;;;;;;;0.00;0.00;;;;;;;;4980814;28;8828;-82
2021/11/07 03:32:55;;;;;;;;;0.00;0.00;;;;;;;;4980683;28;8816;-82
2021/11/07 03:35:20;;;;;;;;;0.00;0.00;;;;;;;;4963082;28;8816;-82
2021/11/07 03:37:55;;;;;;;;;0.00;0.00;;;;;;;;4980659;28;8856;-82
2021/11/07 03:40:22;;;;;;;;;0.00;0.00;;;;;;;;4980277;28;8800;-82
2021/11/07 03:42:47;;;;;;;;;0.00;0.00;;;;;;;;4980686;28;8843;-82
2021/11/07 03:45:12;;;;;;;;;0.00;0.00;;;;;;;;4975819;28;9555;-81
2021/11/07 03:47:38;;;;;;;;;0.00;0.00;;;;;;;;4980802;28;8816;-81
2021/11/07 03:50:04;;;;;;;;;0.00;0.00;;;;;;;;4980456;28;8898;-81
2021/11/07 03:52:29;;;;;;;;;0.00;0.00;;;;;;;;4980208;28;8749;-81
2021/11/07 03:54:55;;;;;;;;;0.00;0.00;;;;;;;;4980496;28;8804;-81
2021/11/07 03:57:20;;;;;;;;;0.00;0.00;;;;;;;;4980359;28;8808;-81
2021/11/07 03:59:48;;;;;;;;;0.00;0.00;;;;;;;;4962790;28;9599;-81
2021/11/07 04:02:14;;;;;;;;;0.00;0.00;;;;;;;;4979252;28;8819;-81
2021/11/07 04:04:40;;;;;;;;;0.00;0.00;;;;;;;;4977124;28;8819;-81
2021/11/07 04:07:05;;;;;;;;;0.00;0.00;;;;;;;;4977267;28;8824;-81
2021/11/07 04:09:31;;;;;;;;;0.00;0.00;;;;;;;;4976943;28;8866;-81
2021/11/07 04:11:56;;;;;;;;;0.00;0.00;;;;;;;;4977032;28;8883;-81
2021/11/07 04:14:21;;;;;;;;;0.00;0.00;;;;;;;;4976872;28;8985;-80
2021/11/07 04:16:47;;;;;;;;;0.00;0.00;;;;;;;;4973555;28;8939;-81
2021/11/07 04:19:12;;;;;;;;;0.00;0.00;;;;;;;;4959271;28;8854;-80
2021/11/07 04:21:40;;;;;;;;;0.00;0.00;;;;;;;;4976553;28;8911;-80
2021/11/07 04:24:05;;;;;;;;;0.00;0.00;;;;;;;;4976886;28;8780;-79
2021/11/07 04:26:30;;;;;;;;;0.00;0.00;;;;;;;;4976512;28;8970;-80
2021/11/07 04:28:56;;;;;;;;;0.00;0.00;;;;;;;;4976982;28;8824;-80
2021/11/07 04:31:21;;;;;;;;;0.00;0.00;;;;;;;;4976685;28;8808;-80
2021/11/07 04:33:47;;;;;;;;;0.00;0.00;;;;;;;;4976839;28;9549;-80
2021/11/07 04:36:12;;;;;;;;;0.00;0.00;;;;;;;;4976297;28;8824;-80
2021/11/07 04:38:38;;;;;;;;;0.00;0.00;;;;;;;;4976953;28;8881;-80
2021/11/07 04:41:05;;;;;;;;;0.00;0.00;;;;;;;;4976593;28;8840;-80
2021/11/07 04:43:30;;;;;;;;;0.00;0.00;;;;;;;;4972132;28;9730;-80
2021/11/07 04:45:56;;;;;;;;;0.00;0.00;;;;;;;;4976897;28;8819;-80
2021/11/07 04:48:21;;;;;;;;;0.00;0.00;;;;;;;;4976373;28;8899;-80
2021/11/07 04:50:47;;;;;;;;;0.00;0.00;;;;;;;;4976693;28;8828;-80
2021/11/07 04:53:13;;;;;;;;;0.00;0.00;;;;;;;;4976111;28;8862;-80
2021/11/07 04:55:41;;;;;;;;;0.00;0.00;;;;;;;;4976479;28;8812;-80
2021/11/07 04:58:07;;;;;;;;;0.00;0.00;;;;;;;;4976085;28;9738;-80
2021/11/07 05:00:33;;;;;;;;;0.00;0.00;;;;;;;;4976670;28;8808;-80
2021/11/07 05:02:59;;;;;;;;;0.00;0.00;;;;;;;;4976387;28;8797;-80
2021/11/07 05:05:25;;;;;;;;;0.00;0.00;;;;;;;;4976358;28;8796;-80
2021/11/07 05:07:51;;;;;;;;;0.00;0.00;;;;;;;;4976399;28;8929;-80
2021/11/07 05:10:17;;;;;;;;;0.00;0.00;;;;;;;;4976041;28;9715;-80
2021/11/07 05:12:42;;;;;;;;;0.00;0.00;;;;;;;;4958697;28;8962;-80
2021/11/07 05:15:08;;;;;;;;;0.00;0.00;;;;;;;;4974839;28;8808;-80
2021/11/07 05:17:33;;;;;;;;;0.00;0.00;;;;;;;;4968045;28;8863;-80
2021/11/07 05:19:59;;;;;;;;;0.00;0.00;;;;;;;;4958432;28;8950;-80
2021/11/07 05:22:24;;;;;;;;;0.00;0.00;;;;;;;;4975938;28;8906;-79
2021/11/07 05:24:49;;;;;;;;;0.00;0.00;;;;;;;;4975667;28;8820;-79
2021/11/07 05:27:15;;;;;;;;;0.00;0.00;;;;;;;;4975842;28;8923;-80
2021/11/07 05:29:40;;;;;;;;;0.00;0.00;;;;;;;;4976041;28;8816;-80
2021/11/07 05:32:06;;;;;;;;;0.00;0.00;;;;;;;;4976166;28;8805;-80
2021/11/07 05:34:32;;;;;;;;;0.00;0.00;;;;;;;;4976001;28;8827;-80
2021/11/07 05:36:58;;;;;;;;;0.00;0.00;;;;;;;;4976076;28;8934;-80
2021/11/07 05:39:23;;;;;;;;;0.00;0.00;;;;;;;;4975631;28;8820;-80
2021/11/07 05:41:49;;;;;;;;;0.00;0.00;;;;;;;;4975607;28;8804;-80
2021/11/07 05:44:14;;;;;;;;;0.00;0.00;;;;;;;;4971310;28;8816;-80
2021/11/07 05:46:40;;;;;;;;;0.00;0.00;;;;;;;;4975811;28;8808;-80
2021/11/07 05:49:05;;;;;;;;;0.00;0.00;;;;;;;;4962875;28;8816;-80
2021/11/07 05:51:31;;;;;;;;;0.00;0.00;;;;;;;;4975302;28;8857;-80
2021/11/07 05:53:57;;;;;;;;;0.00;0.00;;;;;;;;4975673;28;8812;-80
2021/11/07 05:56:22;;;;;;;;;0.00;0.00;;;;;;;;4975015;28;8891;-80
2021/11/07 05:58:48;;;;;;;;;0.00;0.00;;;;;;;;4975433;28;8851;-80
2021/11/07 06:01:13;;;;;;;;;0.00;0.00;;;;;;;;4957747;28;8862;-80
2021/11/07 06:03:39;;;;;;;;;0.00;0.00;;;;;;;;4958061;28;8914;-80
2021/11/07 06:06:05;;;;;;;;;0.00;0.00;;;;;;;;4975664;28;8893;-80
2021/11/07 06:08:30;;;;;;;;;0.00;0.00;;;;;;;;4975135;28;8824;-80
2021/11/07 06:10:55;;;;;;;;;0.00;0.00;;;;;;;;4974573;28;8816;-80
2021/11/07 06:13:21;;;;;;;;;0.00;0.00;;;;;;;;4975013;28;8838;-80
2021/11/07 06:15:46;;;;;;;;;0.00;0.00;;;;;;;;4957654;28;9070;-80
2021/11/07 06:18:12;;;;;;;;;0.00;0.00;;;;;;;;4971608;28;8851;-80
2021/11/07 06:20:37;;;;;;;;;0.00;0.00;;;;;;;;4974456;28;8838;-80
2021/11/07 06:23:04;;;;;;;;;0.00;0.00;;;;;;;;4974941;28;9556;-80
2021/11/07 06:25:30;;;;;;;;;0.00;0.00;;;;;;;;4972935;28;8831;-80
2021/11/07 06:27:56;;;;;;;;;0.00;0.00;;;;;;;;4974425;28;8800;-80
2021/11/07 06:30:21;;;;;;;;;0.00;0.00;;;;;;;;4975049;28;8796;-80
2021/11/07 06:32:46;;;;;;;;;0.00;0.00;;;;;;;;4975073;28;8812;-80
2021/11/07 06:35:13;;;;;;;;;0.00;0.00;;;;;;;;4974599;28;8891;-80
2021/11/07 06:37:39;;;;;;;;;0.00;0.00;;;;;;;;4957090;28;9754;-80
2021/11/07 06:40:05;;;;;;;;;0.00;0.00;;;;;;;;4974852;28;8838;-80
2021/11/07 06:42:30;;;;;;;;;0.00;0.00;;;;;;;;4974639;28;8824;-80
2021/11/07 06:44:56;;;;;;;;;0.00;0.00;;;;;;;;4968838;28;8882;-80
2021/11/07 06:47:22;;;;;;;;;0.00;0.00;;;;;;;;4974659;28;8808;-80
2021/11/07 06:49:49;;;;;;;;;0.00;0.00;;;;;;;;4975100;28;8898;-80
2021/11/07 06:52:14;;;;;;;;;0.00;0.00;;;;;;;;4974290;28;9706;-80
2021/11/07 06:54:40;;;;;;;;;0.00;0.00;;;;;;;;4956726;28;8855;-80
2021/11/07 06:57:05;;;;;;;;;0.00;0.00;;;;;;;;4977609;28;8832;-80
2021/11/07 06:59:31;;;;;;;;;0.00;0.00;;;;;;;;4974657;28;8930;-80
2021/11/07 07:01:57;;;;;;;;;0.00;0.00;;;;;;;;4974728;28;8796;-80
2021/11/07 07:04:22;;;;;;;;;0.00;0.00;;;;;;;;4974793;28;8851;-80
2021/11/07 07:06:48;;;;;;;;;0.00;0.00;;;;;;;;4974392;28;8848;-80
2021/11/07 07:09:17;;;;;;;;;0.00;0.00;;;;;;;;4974817;28;8781;-80
2021/11/07 07:11:47;;;;;;;;;0.00;0.00;;;;;;;;4972999;28;8847;-81
2021/11/07 07:14:17;;;;;;;;;0.00;0.00;;;;;;;;4970746;28;8836;-79
2021/11/07 07:20:08;;;;;;;;;0.00;0.00;;;;;;;;4971988;28;8823;-82
2021/11/07 07:25:07;;;;;;;;;0.00;0.00;;;;;;;;4973976;28;8895;-80
2021/11/07 07:27:52;;;;;;;;;0.00;0.00;;;;;;;;4974330;28;9711;-80
2021/11/07 07:33:28;;;;;;;;;0.00;0.00;;;;;;;;4974522;28;8800;-79
2021/11/07 07:35:56;;;;;;;;;0.00;0.00;;;;;;;;4974112;28;8800;-78
2021/11/07 07:38:22;;;;;;;;;0.00;0.00;;;;;;;;4954988;28;8875;-78
2021/11/07 07:40:47;;;;;;;;;0.00;0.00;;;;;;;;4976673;28;9694;-79
2021/11/07 07:43:13;;;;;;;;;0.00;0.00;;;;;;;;4974806;28;8844;-78
2021/11/07 07:45:38;;;;;;;;;0.00;0.00;;;;;;;;4977337;28;8800;-77
2021/11/07 07:48:04;;;;;;;;;0.00;0.00;;;;;;;;4977498;28;9624;-77
2021/11/07 07:50:31;;;;;;;;;0.00;0.00;;;;;;;;4975256;28;8941;-78
2021/11/07 07:52:56;;;;;;;;;0.00;0.00;;;;;;;;4968571;28;8849;-78
2021/11/07 07:55:22;;;;;;;;;0.00;0.00;;;;;;;;4977209;28;8918;-78
2021/11/07 07:57:52;;;;;;;;;0.00;0.00;;;;;;;;4987898;28;8882;-79
2021/11/07 08:00:19;;;;;;;;;0.00;0.00;;;;;;;;4968709;28;8839;-78
2021/11/07 08:02:44;;;;;;;;;0.00;0.00;;;;;;;;4977076;28;8842;-79
2021/11/07 08:05:11;;;;;;;;;0.00;0.00;;;;;;;;4977138;28;8820;-79
2021/11/07 08:07:36;;;;;;;;;0.00;0.00;;;;;;;;4977272;28;8800;-79
2021/11/07 08:10:03;;;;;;;;;0.00;0.00;;;;;;;;4976237;28;8824;-78
2021/11/07 08:12:28;;;;;;;;;0.00;0.00;;;;;;;;4976816;28;8792;-79
2021/11/07 08:14:54;;;;;;;;;0.00;0.00;;;;;;;;4959587;28;8850;-78
2021/11/07 08:17:19;;;;;;;;;0.00;0.00;;;;;;;;4969234;28;8796;-78
2021/11/07 08:19:45;;;;;;;;;0.00;0.00;;;;;;;;4965407;28;8893;-79
2021/11/07 08:22:11;;;;;;;;;0.00;0.00;;;;;;;;4976275;28;9694;-79
2021/11/07 08:24:37;;;;;;;;;0.00;0.00;;;;;;;;4973156;28;8801;-79
2021/11/07 08:27:03;;;;;;;;;0.00;0.00;;;;;;;;4970915;28;8792;-79
2021/11/07 08:29:29;;;;;;;;;0.00;0.00;;;;;;;;4976227;28;8768;-80
2021/11/07 08:31:55;;;;;;;;;0.00;0.00;;;;;;;;4976686;28;9508;-81
2021/11/07 08:34:24;;;;;;;;;0.00;0.00;;;;;;;;4976960;28;8835;-80
2021/11/07 08:37:11;;;;;;;;;0.00;0.00;;;;;;;;4968739;28;8788;-80
2021/11/07 09:02:00;;;;;;;;;0.00;0.00;;;;;;;;4962924;28;8742;-80
2021/11/07 09:09:19;;;;;;;;;0.00;0.00;;;;;;;;4975940;28;8827;-80
2021/11/07 09:11:50;;;;;;;;;0.00;0.00;;;;;;;;4975893;28;8835;-78
2021/11/07 09:14:17;;;;;;;;;0.00;0.00;;;;;;;;4975590;28;8846;-79
2021/11/07 09:16:43;;;;;;;;;0.00;0.00;;;;;;;;4975902;28;8820;-79
2021/11/07 09:19:10;;;;;;;;;0.00;0.00;;;;;;;;4975396;28;8946;-78
2021/11/07 09:21:40;;;;;;;;;0.00;0.00;;;;;;;;4965313;28;8841;-79
2021/11/07 09:24:11;;;;;;;;;0.00;0.00;;;;;;;;4975292;28;8838;-78
2021/11/07 09:26:47;;;;;;;;;0.00;0.00;;;;;;;;4975938;28;8813;-78
2021/11/07 09:29:24;;;;;;;;;0.00;0.00;;;;;;;;4976174;28;8816;-79
2021/11/07 09:34:24;;;;;;;;;0.00;0.00;;;;;;;;4970906;28;8895;-78
2021/11/07 09:37:20;;;;;;;;;0.00;0.00;;;;;;;;4975862;28;8915;-79
2021/11/07 09:39:50;;;;;;;;;0.00;0.00;;;;;;;;4974871;28;8926;-79
2021/11/07 09:44:53;;;;;;;;;0.00;0.00;;;;;;;;4964609;28;8867;-79
2021/11/07 09:47:20;;;;;;;;;0.00;0.00;;;;;;;;4975365;28;8870;-79
2021/11/07 09:49:48;;;;;;;;;0.00;0.00;;;;;;;;4975416;28;8832;-79
2021/11/07 09:52:21;;;;;;;;;0.00;0.00;;;;;;;;4975496;28;8875;-79
2021/11/07 09:54:51;;;;;;;;;0.00;0.00;;;;;;;;4957319;28;8820;-79
2021/11/07 09:57:21;;;;;;;;;0.00;0.00;;;;;;;;4969751;28;8808;-79
2021/11/07 09:59:51;;;;;;;;;0.00;0.00;;;;;;;;4975009;28;8917;-79
2021/11/07 10:02:16;;;;;;;;;0.00;0.00;;;;;;;;4974716;28;8796;-79
2021/11/07 10:04:42;;;;;;;;;0.00;0.00;;;;;;;;4975105;28;8826;-79
2021/11/07 10:07:18;;;;;;;;;0.00;0.00;;;;;;;;4975187;28;8886;-79
2021/11/07 10:09:44;;;;;;;;;0.00;0.00;;;;;;;;4974738;28;8812;-80
2021/11/07 10:12:19;;;;;;;;;0.00;0.00;;;;;;;;4975007;28;8772;-81
2021/11/07 10:14:48;;;;;;;;;0.00;0.00;;;;;;;;4975129;28;8772;-79
2021/11/07 10:17:52;;;;;;;;;0.00;0.00;;;;;;;;4967763;28;8833;-80
2021/11/07 10:20:33;;;;;;;;;0.00;0.00;;;;;;;;4967635;28;8808;-80
2021/11/07 10:23:19;;;;;;;;;0.00;0.00;;;;;;;;4963565;28;8796;-80
2021/11/07 10:25:58;;;;;;;;;0.00;0.00;;;;;;;;4970230;28;8847;-80
2021/11/07 10:28:35;;;;;;;;;0.00;0.00;;;;;;;;4974742;28;9487;-80
2021/11/07 10:31:19;;;;;;;;;0.00;0.00;;;;;;;;4963703;28;8784;-80
2021/11/07 10:41:43;;;;;;;;;0.00;0.00;;;;;;;;4974648;28;8812;-79
2021/11/07 10:44:26;;;;;;;;;0.00;0.00;;;;;;;;4965180;28;8760;-80
2021/11/07 10:52:37;;;;;;;;;0.00;0.00;;;;;;;;4974536;28;8756;-80
2021/11/07 10:55:03;;;;;;;;;0.00;0.00;;;;;;;;4974544;28;8820;-80
2021/11/07 10:57:30;;;;;;;;;0.00;0.00;;;;;;;;4974556;28;8804;-79
2021/11/07 11:00:14;;;;;;;;;0.00;0.00;;;;;;;;4974587;28;9731;-80
2021/11/07 11:02:42;;;;;;;;;0.00;0.00;;;;;;;;4974359;28;8896;-80
2021/11/07 11:05:15;;;;;;;;;0.00;0.00;;;;;;;;4974854;28;8781;-79
2021/11/07 11:07:59;;;;;;;;;0.00;0.00;;;;;;;;4974398;28;8796;-79
2021/11/07 11:10:31;;;;;;;;;0.00;0.00;;;;;;;;4974392;28;8800;-80
2021/11/07 11:13:02;;;;;;;;;0.00;0.00;;;;;;;;4977302;28;8823;-80
2021/11/07 11:15:36;;;;;;;;;0.00;0.00;;;;;;;;4960120;28;8814;-79
2021/11/07 11:18:11;;;;;;;;;0.00;0.00;;;;;;;;4966091;28;8829;-79
2021/11/07 11:21:05;;;;;;;;;0.00;0.00;;;;;;;;4977524;28;8823;-80
2021/11/07 11:23:44;;;;;;;;;0.00;0.00;;;;;;;;4966665;28;8898;-79
2021/11/07 11:26:36;;;;;;;;;0.00;0.00;;;;;;;;4967691;28;8814;-80
2021/11/07 11:34:30;;;;;;;;;0.00;0.00;;;;;;;;4969349;28;8839;-80
2021/11/07 11:37:20;;;;;;;;;0.00;0.00;;;;;;;;4960060;28;8804;-81
2021/11/07 11:42:44;;;;;;;;;0.00;0.00;;;;;;;;4972637;28;8838;-81
2021/11/07 11:45:10;;;;;;;;;0.00;0.00;;;;;;;;4973096;28;8816;-81
2021/11/07 11:50:55;;;;;;;;;0.00;0.00;;;;;;;;4967854;28;8808;-82
2021/11/07 11:56:48;;;;;;;;;0.00;0.00;;;;;;;;4975932;28;8859;-82
2021/11/07 12:03:12;;;;;;;;;0.00;0.00;;;;;;;;4879217;29;8779;-82
2021/11/07 12:05:26;;;;;;;;;0.00;0.00;;;;;;;;4968379;28;8769;-81
2021/11/07 12:08:11;;;;;;;;;0.00;0.00;;;;;;;;4965169;28;8858;-80
2021/11/07 12:16:14;;;;;;;;;0.00;0.00;;;;;;;;4965291;28;8815;-81
2021/11/07 12:18:59;;;;;;;;;0.00;0.00;;;;;;;;4977978;28;8795;-81
2021/11/07 12:21:45;;;;;;;;;0.00;0.00;;;;;;;;4959782;28;8919;-82
2021/11/07 12:24:10;;;;;;;;;0.00;0.00;;;;;;;;4963530;28;8788;-82
2021/11/07 12:26:41;;;;;;;;;0.00;0.00;;;;;;;;4976906;28;8899;-82
2021/11/07 12:29:07;;;;;;;;;0.00;0.00;;;;;;;;4958181;28;8878;-82
2021/11/07 12:32:03;;;;;;;;;;;;;;;;;;;;;
2021/11/07 12:35:07;;;;;;;;;0.00;0.00;;;;;;;;4964914;28;36282;-83
2021/11/07 12:41:09;;;;;;;;;0.00;0.00;;;;;;;;4909970;28;8900;-82
2021/11/07 12:43:48;;;;;;;;;0.00;0.00;;;;;;;;4974114;28;9795;-82
2021/11/07 12:49:26;;;;;;;;;0.00;0.00;;;;;;;;4966703;28;8851;-82
2021/11/07 12:58:30;;;;;;;;;0.00;0.00;;;;;;;;4947962;28;9686;-82
2021/11/07 13:00:59;;;;;;;;;0.00;0.00;;;;;;;;4971318;28;8752;-83
2021/11/07 13:03:38;;;;;;;;;;;;;;;;;;;;;
2021/11/07 13:06:04;;;;;;;;;0.00;0.00;;;;;;;;4970643;28;35516;-81
2021/11/07 13:08:34;;;;;;;;;0.00;0.00;;;;;;;;4976052;28;8816;-83
2021/11/07 15:32:40;;;;;;;;;0.00;0.00;;;;;;;;4798676;29;8923;-81
2021/11/07 15:38:31;;;;;;;;;0.00;0.00;;;;;;;;4813726;29;8814;-81
